sensor_id;sensor_type;location;lat;lon;timestamp;pressure;altitude;pressure_sealevel;temperature;humidity
38054;BME280;23859;50.672;7.164;2023-09-19T00:01:48;35144.72;;;-140.95;80.51
38054;BME280;23859;50.672;7.164;2023-09-19T00:04:14;35172.84;;;-140.95;80.22
38054;BME280;23859;50.672;7.164;2023-09-19T00:06:40;35184.91;;;-140.95;80.99
38054;BME280;23859;50.672;7.164;2023-09-19T00:09:07;35140.72;;;-140.95;80.77
38054;BME280;23859;50.672;7.164;2023-09-19T00:11:39;35156.78;;;-140.95;80.91
38054;BME280;23859;50.672;7.164;2023-09-19T00:14:05;35186.91;;;-140.95;81.08
38054;BME280;23859;50.672;7.164;2023-09-19T00:16:34;35160.78;;;-140.95;81.15
38054;BME280;23859;50.672;7.164;2023-09-19T00:19:01;35138.69;;;-140.95;80.46
38054;BME280;23859;50.672;7.164;2023-09-19T00:21:27;35184.91;;;-140.95;80.65
38054;BME280;23859;50.672;7.164;2023-09-19T00:23:54;35196.94;;;-140.95;80.52
38054;BME280;23859;50.672;7.164;2023-09-19T00:26:21;35180.88;;;-140.95;80.30
38054;BME280;23859;50.672;7.164;2023-09-19T00:28:47;35221.06;;;-140.95;80.22
38054;BME280;23859;50.672;7.164;2023-09-19T00:31:13;35223.06;;;-140.95;80.68
38054;BME280;23859;50.672;7.164;2023-09-19T00:33:39;35231.09;;;-140.95;80.14
38054;BME280;23859;50.672;7.164;2023-09-19T00:36:05;35241.16;;;-140.95;80.44
38054;BME280;23859;50.672;7.164;2023-09-19T00:38:31;35235.13;;;-140.95;80.30
38054;BME280;23859;50.672;7.164;2023-09-19T00:40:58;35237.13;;;-140.95;80.90
38054;BME280;23859;50.672;7.164;2023-09-19T00:43:25;35217.03;;;-140.95;80.50
38054;BME280;23859;50.672;7.164;2023-09-19T00:45:56;35273.28;;;-140.95;79.95
38054;BME280;23859;50.672;7.164;2023-09-19T00:48:29;35221.06;;;-140.95;80.06
38054;BME280;23859;50.672;7.164;2023-09-19T00:50:59;35233.13;;;-140.95;79.95
38054;BME280;23859;50.672;7.164;2023-09-19T00:53:28;35225.06;;;-140.95;80.48
38054;BME280;23859;50.672;7.164;2023-09-19T00:55:56;35841.84;;;-140.95;80.27
38054;BME280;23859;50.672;7.164;2023-09-19T00:58:22;35253.19;;;-140.95;80.26
38054;BME280;23859;50.672;7.164;2023-09-19T01:00:49;35265.25;;;-140.95;80.20
38054;BME280;23859;50.672;7.164;2023-09-19T01:03:15;35223.06;;;-140.95;80.11
38054;BME280;23859;50.672;7.164;2023-09-19T01:05:42;35231.09;;;-140.95;80.02
38054;BME280;23859;50.672;7.164;2023-09-19T01:08:08;35229.09;;;-140.95;79.79
38054;BME280;23859;50.672;7.164;2023-09-19T01:10:44;35217.03;;;-140.95;79.90
38054;BME280;23859;50.672;7.164;2023-09-19T01:13:39;35243.16;;;-140.95;79.09
38054;BME280;23859;50.672;7.164;2023-09-19T01:16:33;35176.88;;;-140.95;79.26
38054;BME280;23859;50.672;7.164;2023-09-19T01:21:55;35176.88;;;-140.95;77.03
38054;BME280;23859;50.672;7.164;2023-09-19T01:30:27;35116.59;;;-140.95;73.04
38054;BME280;23859;50.672;7.164;2023-09-19T01:32:59;35110.56;;;-140.95;73.49
38054;BME280;23859;50.672;7.164;2023-09-19T01:35:25;35078.44;;;-140.95;73.22
38054;BME280;23859;50.672;7.164;2023-09-19T01:37:51;35116.59;;;-140.95;74.59
38054;BME280;23859;50.672;7.164;2023-09-19T01:40:20;35064.38;;;-140.95;74.54
38054;BME280;23859;50.672;7.164;2023-09-19T01:45:46;35084.47;;;-140.95;75.15
38054;BME280;23859;50.672;7.164;2023-09-19T01:48:25;35082.44;;;-140.95;74.29
38054;BME280;23859;50.672;7.164;2023-09-19T01:51:00;35054.31;;;-140.95;72.06
38054;BME280;23859;50.672;7.164;2023-09-19T01:53:44;35080.44;;;-140.95;70.58
38054;BME280;23859;50.672;7.164;2023-09-19T01:56:25;35080.44;;;-140.95;71.07
38054;BME280;23859;50.672;7.164;2023-09-19T01:58:57;35040.25;;;-140.95;71.14
38054;BME280;23859;50.672;7.164;2023-09-19T02:01:25;35028.22;;;-140.95;70.47
38054;BME280;23859;50.672;7.164;2023-09-19T02:03:52;35038.25;;;-140.95;68.48
38054;BME280;23859;50.672;7.164;2023-09-19T02:06:19;35044.28;;;-140.95;66.62
38054;BME280;23859;50.672;7.164;2023-09-19T02:08:47;35044.28;;;-140.95;70.14
38054;BME280;23859;50.672;7.164;2023-09-19T02:11:13;35086.47;;;-140.95;72.18
38054;BME280;23859;50.672;7.164;2023-09-19T02:13:39;35040.25;;;-140.95;72.07
38054;BME280;23859;50.672;7.164;2023-09-19T02:16:06;35054.31;;;-140.95;72.64
38054;BME280;23859;50.672;7.164;2023-09-19T02:18:33;35072.41;;;-140.95;73.49
38054;BME280;23859;50.672;7.164;2023-09-19T02:21:02;35092.50;;;-140.95;71.87
38054;BME280;23859;50.672;7.164;2023-09-19T02:23:30;35124.63;;;-140.95;72.10
38054;BME280;23859;50.672;7.164;2023-09-19T02:25:56;35124.63;;;-140.95;72.42
38054;BME280;23859;50.672;7.164;2023-09-19T02:28:26;35122.63;;;-140.95;72.65
38054;BME280;23859;50.672;7.164;2023-09-19T02:30:59;35074.41;;;-140.95;70.60
38054;BME280;23859;50.672;7.164;2023-09-19T02:33:25;35086.47;;;-140.95;70.92
38054;BME280;23859;50.672;7.164;2023-09-19T02:35:55;35108.56;;;-140.95;71.16
38054;BME280;23859;50.672;7.164;2023-09-19T02:38:24;35148.75;;;-140.95;69.59
38054;BME280;23859;50.672;7.164;2023-09-19T02:40:52;35152.75;;;-140.95;70.71
38054;BME280;23859;50.672;7.164;2023-09-19T02:43:18;35156.78;;;-140.95;72.64
38054;BME280;23859;50.672;7.164;2023-09-19T02:45:50;35170.84;;;-140.95;73.28
38054;BME280;23859;50.672;7.164;2023-09-19T02:48:26;35188.91;;;-140.95;74.76
38054;BME280;23859;50.672;7.164;2023-09-19T02:50:52;35213.03;;;-140.95;75.29
38054;BME280;23859;50.672;7.164;2023-09-19T02:53:19;35245.16;;;-140.95;75.42
38054;BME280;23859;50.672;7.164;2023-09-19T02:55:46;35227.09;;;-140.95;75.51
38054;BME280;23859;50.672;7.164;2023-09-19T02:58:12;35237.13;;;-140.95;74.87
38054;BME280;23859;50.672;7.164;2023-09-19T03:00:40;35217.03;;;-140.95;75.45
38054;BME280;23859;50.672;7.164;2023-09-19T03:03:08;35217.03;;;-140.95;75.27
38054;BME280;23859;50.672;7.164;2023-09-19T03:05:34;35233.13;;;-140.95;75.33
38054;BME280;23859;50.672;7.164;2023-09-19T03:08:00;35217.03;;;-140.95;75.89
38054;BME280;23859;50.672;7.164;2023-09-19T03:10:27;35259.22;;;-140.95;76.17
38054;BME280;23859;50.672;7.164;2023-09-19T03:12:54;35289.38;;;-140.95;75.64
38054;BME280;23859;50.672;7.164;2023-09-19T03:15:20;35245.16;;;-140.95;75.89
38054;BME280;23859;50.672;7.164;2023-09-19T03:17:48;35267.25;;;-140.95;76.25
38054;BME280;23859;50.672;7.164;2023-09-19T03:20:15;35267.25;;;-140.95;76.80
38054;BME280;23859;50.672;7.164;2023-09-19T03:22:45;35271.28;;;-140.95;75.96
38054;BME280;23859;50.672;7.164;2023-09-19T03:25:11;35287.34;;;-140.95;76.64
38054;BME280;23859;50.672;7.164;2023-09-19T03:27:38;35319.50;;;-140.95;76.25
38054;BME280;23859;50.672;7.164;2023-09-19T03:30:05;35277.31;;;-140.95;76.90
38054;BME280;23859;50.672;7.164;2023-09-19T03:32:35;35317.50;;;-140.95;77.03
38054;BME280;23859;50.672;7.164;2023-09-19T03:35:02;35355.66;;;-140.95;77.34
38054;BME280;23859;50.672;7.164;2023-09-19T03:37:31;35337.56;;;-140.95;76.93
38054;BME280;23859;50.672;7.164;2023-09-19T03:39:57;35327.53;;;-140.95;77.60
38054;BME280;23859;50.672;7.164;2023-09-19T03:42:24;35339.59;;;-140.95;77.08
38054;BME280;23859;50.672;7.164;2023-09-19T03:44:52;35353.66;;;-140.95;77.33
38054;BME280;23859;50.672;7.164;2023-09-19T03:47:18;35373.75;;;-140.95;78.33
38054;BME280;23859;50.672;7.164;2023-09-19T03:49:47;35363.69;;;-140.95;78.76
38054;BME280;23859;50.672;7.164;2023-09-19T03:52:14;35369.72;;;-140.95;78.70
38054;BME280;23859;50.672;7.164;2023-09-19T03:54:41;35876.00;;;-140.95;78.40
38054;BME280;23859;50.672;7.164;2023-09-19T03:57:09;35343.59;;;-140.95;78.71
38054;BME280;23859;50.672;7.164;2023-09-19T03:59:35;35341.59;;;-140.95;78.28
38054;BME280;23859;50.672;7.164;2023-09-19T04:02:01;35968.44;;;-140.95;77.71
38054;BME280;23859;50.672;7.164;2023-09-19T04:04:28;35361.69;;;-140.95;77.88
38054;BME280;23859;50.672;7.164;2023-09-19T04:06:55;35333.56;;;-140.95;75.59
38054;BME280;23859;50.672;7.164;2023-09-19T04:09:21;35329.53;;;-140.95;75.55
38054;BME280;23859;50.672;7.164;2023-09-19T04:11:47;35341.59;;;-140.95;74.95
38054;BME280;23859;50.672;7.164;2023-09-19T04:14:13;35313.47;;;-140.95;74.59
38054;BME280;23859;50.672;7.164;2023-09-19T04:16:39;35297.41;;;-140.95;75.38
38054;BME280;23859;50.672;7.164;2023-09-19T04:19:05;35325.53;;;-140.95;74.76
38054;BME280;23859;50.672;7.164;2023-09-19T04:21:31;35353.66;;;-140.95;74.44
38054;BME280;23859;50.672;7.164;2023-09-19T04:23:57;35315.47;;;-140.95;74.10
38054;BME280;23859;50.672;7.164;2023-09-19T04:26:24;35341.59;;;-140.95;74.80
38054;BME280;23859;50.672;7.164;2023-09-19T04:28:51;35335.56;;;-140.95;75.25
38054;BME280;23859;50.672;7.164;2023-09-19T04:31:17;35333.56;;;-140.95;74.95
38054;BME280;23859;50.672;7.164;2023-09-19T04:33:45;35337.56;;;-140.95;74.87
38054;BME280;23859;50.672;7.164;2023-09-19T04:36:11;35311.47;;;-140.95;74.71
38054;BME280;23859;50.672;7.164;2023-09-19T04:38:39;35325.53;;;-140.95;74.56
38054;BME280;23859;50.672;7.164;2023-09-19T04:41:05;35337.56;;;-140.95;74.28
38054;BME280;23859;50.672;7.164;2023-09-19T04:43:32;35297.41;;;-140.95;74.76
38054;BME280;23859;50.672;7.164;2023-09-19T04:45:58;35321.50;;;-140.95;74.27
38054;BME280;23859;50.672;7.164;2023-09-19T04:48:27;35357.66;;;-140.95;74.60
38054;BME280;23859;50.672;7.164;2023-09-19T04:50:54;35323.50;;;-140.95;73.62
38054;BME280;23859;50.672;7.164;2023-09-19T04:53:21;35321.50;;;-140.95;74.76
38054;BME280;23859;50.672;7.164;2023-09-19T04:55:51;35317.50;;;-140.95;74.80
38054;BME280;23859;50.672;7.164;2023-09-19T04:58:18;35353.66;;;-140.95;75.08
38054;BME280;23859;50.672;7.164;2023-09-19T05:00:45;35640.94;;;-140.95;75.57
38054;BME280;23859;50.672;7.164;2023-09-19T05:03:12;35349.63;;;-140.95;74.92
38054;BME280;23859;50.672;7.164;2023-09-19T05:05:38;35333.56;;;-140.95;74.92
38054;BME280;23859;50.672;7.164;2023-09-19T05:08:05;35349.63;;;-140.95;74.66
38054;BME280;23859;50.672;7.164;2023-09-19T05:10:32;35335.56;;;-140.95;75.38
38054;BME280;23859;50.672;7.164;2023-09-19T05:12:58;35337.56;;;-140.95;74.74
38054;BME280;23859;50.672;7.164;2023-09-19T05:15:24;35369.72;;;-140.95;73.62
38054;BME280;23859;50.672;7.164;2023-09-19T05:17:51;35353.66;;;-140.95;74.46
38054;BME280;23859;50.672;7.164;2023-09-19T05:20:18;35329.53;;;-140.95;75.23
38054;BME280;23859;50.672;7.164;2023-09-19T05:23:03;35369.72;;;-140.95;74.80
38054;BME280;23859;50.672;7.164;2023-09-19T05:25:35;35365.69;;;-140.95;75.28
38054;BME280;23859;50.672;7.164;2023-09-19T05:28:09;35369.72;;;-140.95;75.27
38054;BME280;23859;50.672;7.164;2023-09-19T05:30:37;35349.63;;;-140.95;74.87
38054;BME280;23859;50.672;7.164;2023-09-19T05:33:07;35369.72;;;-140.95;74.64
38054;BME280;23859;50.672;7.164;2023-09-19T05:35:34;35375.75;;;-140.95;74.81
38054;BME280;23859;50.672;7.164;2023-09-19T05:38:02;35313.47;;;-140.95;75.33
38054;BME280;23859;50.672;7.164;2023-09-19T05:40:30;35367.72;;;-140.95;74.32
38054;BME280;23859;50.672;7.164;2023-09-19T05:42:56;35343.59;;;-140.95;74.69
38054;BME280;23859;50.672;7.164;2023-09-19T05:45:22;35333.56;;;-140.95;73.75
38054;BME280;23859;50.672;7.164;2023-09-19T05:47:51;35335.56;;;-140.95;73.63
38054;BME280;23859;50.672;7.164;2023-09-19T05:50:22;35349.63;;;-140.95;73.52
38054;BME280;23859;50.672;7.164;2023-09-19T05:52:54;35313.47;;;-140.95;73.67
38054;BME280;23859;50.672;7.164;2023-09-19T05:55:22;35345.63;;;-140.95;73.47
38054;BME280;23859;50.672;7.164;2023-09-19T05:57:51;35345.63;;;-140.95;73.17
38054;BME280;23859;50.672;7.164;2023-09-19T06:00:22;35331.56;;;-140.95;73.37
38054;BME280;23859;50.672;7.164;2023-09-19T06:02:56;35309.44;;;-140.95;72.80
38054;BME280;23859;50.672;7.164;2023-09-19T06:05:23;35265.25;;;-140.95;71.89
38054;BME280;23859;50.672;7.164;2023-09-19T06:07:49;35279.31;;;-140.95;71.82
38054;BME280;23859;50.672;7.164;2023-09-19T06:10:17;35261.25;;;-140.95;69.10
38054;BME280;23859;50.672;7.164;2023-09-19T06:12:43;35245.16;;;-140.95;70.03
38054;BME280;23859;50.672;7.164;2023-09-19T06:15:10;35271.28;;;-140.95;69.93
38054;BME280;23859;50.672;7.164;2023-09-19T06:17:41;35221.06;;;-140.95;67.30
38054;BME280;23859;50.672;7.164;2023-09-19T06:20:08;35198.97;;;-140.95;68.04
38054;BME280;23859;50.672;7.164;2023-09-19T06:22:43;35198.97;;;-140.95;66.60
38054;BME280;23859;50.672;7.164;2023-09-19T06:25:10;35209.00;;;-140.95;66.77
38054;BME280;23859;50.672;7.164;2023-09-19T06:27:39;35196.94;;;-140.95;66.42
38054;BME280;23859;50.672;7.164;2023-09-19T06:30:09;35192.94;;;-140.95;66.99
38054;BME280;23859;50.672;7.164;2023-09-19T06:32:36;35182.88;;;-140.95;65.51
38054;BME280;23859;50.672;7.164;2023-09-19T06:35:02;35166.81;;;-140.95;65.96
38054;BME280;23859;50.672;7.164;2023-09-19T06:37:29;35140.72;;;-140.95;64.57
38054;BME280;23859;50.672;7.164;2023-09-19T06:39:55;35144.72;;;-140.95;66.04
38054;BME280;23859;50.672;7.164;2023-09-19T06:42:22;35140.72;;;-140.95;65.69
38054;BME280;23859;50.672;7.164;2023-09-19T06:44:49;35152.75;;;-140.95;66.53
38054;BME280;23859;50.672;7.164;2023-09-19T06:47:15;35160.78;;;-140.95;66.23
38054;BME280;23859;50.672;7.164;2023-09-19T06:49:42;35184.91;;;-140.95;67.71
38054;BME280;23859;50.672;7.164;2023-09-19T06:52:11;35156.78;;;-140.95;67.57
38054;BME280;23859;50.672;7.164;2023-09-19T06:54:37;35096.50;;;-140.95;66.86
38054;BME280;23859;50.672;7.164;2023-09-19T06:57:03;35124.63;;;-140.95;64.74
38054;BME280;23859;50.672;7.164;2023-09-19T06:59:30;35124.63;;;-140.95;63.94
38054;BME280;23859;50.672;7.164;2023-09-19T07:01:58;35088.47;;;-140.95;64.04
38054;BME280;23859;50.672;7.164;2023-09-19T07:04:25;35084.47;;;-140.95;62.71
38054;BME280;23859;50.672;7.164;2023-09-19T07:06:51;35078.44;;;-140.95;63.28
38054;BME280;23859;50.672;7.164;2023-09-19T07:09:17;35052.31;;;-140.95;64.24
38054;BME280;23859;50.672;7.164;2023-09-19T07:11:45;35016.16;;;-140.95;63.11
38054;BME280;23859;50.672;7.164;2023-09-19T07:14:13;35000.09;;;-140.95;61.38
38054;BME280;23859;50.672;7.164;2023-09-19T07:16:39;34965.94;;;-140.95;62.49
38054;BME280;23859;50.672;7.164;2023-09-19T07:19:08;34984.03;;;-140.95;60.90
38054;BME280;23859;50.672;7.164;2023-09-19T07:21:34;34931.78;;;-140.95;60.84
38054;BME280;23859;50.672;7.164;2023-09-19T07:24:01;35279.31;;;-140.95;60.34
38054;BME280;23859;50.672;7.164;2023-09-19T07:26:30;34955.91;;;-140.95;59.98
38054;BME280;23859;50.672;7.164;2023-09-19T07:28:57;34975.97;;;-140.95;58.91
38054;BME280;23859;50.672;7.164;2023-09-19T07:31:28;34897.66;;;-140.95;59.07
38054;BME280;23859;50.672;7.164;2023-09-19T07:33:55;34889.59;;;-140.95;58.94
38054;BME280;23859;50.672;7.164;2023-09-19T07:36:21;34907.69;;;-140.95;59.94
38054;BME280;23859;50.672;7.164;2023-09-19T07:38:47;34881.56;;;-140.95;58.79
38054;BME280;23859;50.672;7.164;2023-09-19T07:41:13;34881.56;;;-140.95;58.24
38054;BME280;23859;50.672;7.164;2023-09-19T07:43:39;34825.34;;;-140.95;57.52
38054;BME280;23859;50.672;7.164;2023-09-19T07:46:08;34803.25;;;-140.95;56.12
38054;BME280;23859;50.672;7.164;2023-09-19T07:48:38;34783.16;;;-140.95;56.18
38054;BME280;23859;50.672;7.164;2023-09-19T07:51:08;34775.13;;;-140.95;56.32
38054;BME280;23859;50.672;7.164;2023-09-19T07:53:35;34742.97;;;-140.95;54.98
38054;BME280;23859;50.672;7.164;2023-09-19T07:56:09;34779.13;;;-140.95;55.70
38054;BME280;23859;50.672;7.164;2023-09-19T07:58:38;34730.94;;;-140.95;54.31
38054;BME280;23859;50.672;7.164;2023-09-19T08:01:07;34684.72;;;-140.95;54.81
38054;BME280;23859;50.672;7.164;2023-09-19T08:03:34;34706.81;;;-140.95;54.82
38054;BME280;23859;50.672;7.164;2023-09-19T08:06:00;34702.81;;;-140.95;54.43
38054;BME280;23859;50.672;7.164;2023-09-19T08:08:27;34706.81;;;-140.95;54.90
38054;BME280;23859;50.672;7.164;2023-09-19T08:10:57;34634.50;;;-140.95;54.95
38054;BME280;23859;50.672;7.164;2023-09-19T08:13:24;34592.34;;;-140.95;53.02
38054;BME280;23859;50.672;7.164;2023-09-19T08:15:50;34578.28;;;-140.95;52.86
38054;BME280;23859;50.672;7.164;2023-09-19T08:18:18;34572.25;;;-140.95;53.86
38054;BME280;23859;50.672;7.164;2023-09-19T08:20:50;34610.41;;;-140.95;53.13
38054;BME280;23859;50.672;7.164;2023-09-19T08:23:16;34570.25;;;-140.95;54.07
38054;BME280;23859;50.672;7.164;2023-09-19T08:25:47;34536.09;;;-140.95;52.76
38054;BME280;23859;50.672;7.164;2023-09-19T08:28:13;34538.09;;;-140.95;52.09
38054;BME280;23859;50.672;7.164;2023-09-19T08:30:47;34558.19;;;-140.95;52.08
38054;BME280;23859;50.672;7.164;2023-09-19T08:33:13;34493.91;;;-140.95;51.30
38054;BME280;23859;50.672;7.164;2023-09-19T08:35:41;34449.72;;;-140.95;53.03
38054;BME280;23859;50.672;7.164;2023-09-19T08:38:10;34409.56;;;-140.95;50.43
38054;BME280;23859;50.672;7.164;2023-09-19T08:40:40;34389.47;;;-140.95;51.12
38054;BME280;23859;50.672;7.164;2023-09-19T08:43:08;34323.19;;;-140.95;50.72
38054;BME280;23859;50.672;7.164;2023-09-19T08:45:34;34327.22;;;-140.95;49.59
38054;BME280;23859;50.672;7.164;2023-09-19T08:48:12;34365.38;;;-140.95;50.07
38054;BME280;23859;50.672;7.164;2023-09-19T08:51:12;34423.63;;;-140.95;50.36
38054;BME280;23859;50.672;7.164;2023-09-19T08:54:07;34457.75;;;-140.95;49.55
38054;BME280;23859;50.672;7.164;2023-09-19T08:56:34;34457.75;;;-140.95;48.34
38054;BME280;23859;50.672;7.164;2023-09-19T08:59:05;34433.66;;;-140.95;48.56
38054;BME280;23859;50.672;7.164;2023-09-19T09:01:35;34341.28;;;-140.95;48.07
38054;BME280;23859;50.672;7.164;2023-09-19T09:04:02;34353.31;;;-140.95;47.54
38054;BME280;23859;50.672;7.164;2023-09-19T09:06:29;34345.28;;;-140.95;48.64
38054;BME280;23859;50.672;7.164;2023-09-19T09:08:58;34323.19;;;-140.95;47.20
38054;BME280;23859;50.672;7.164;2023-09-19T09:11:24;34339.25;;;-140.95;46.74
38054;BME280;23859;50.672;7.164;2023-09-19T09:13:51;34347.28;;;-140.95;47.27
38054;BME280;23859;50.672;7.164;2023-09-19T09:16:17;34285.03;;;-140.95;46.54
38054;BME280;23859;50.672;7.164;2023-09-19T09:18:45;34361.34;;;-140.95;46.03
38054;BME280;23859;50.672;7.164;2023-09-19T09:21:12;34317.16;;;-140.95;45.33
38054;BME280;23859;50.672;7.164;2023-09-19T09:23:39;34287.03;;;-140.95;46.03
38054;BME280;23859;50.672;7.164;2023-09-19T09:26:05;34228.81;;;-140.95;46.12
38054;BME280;23859;50.672;7.164;2023-09-19T09:28:35;34228.81;;;-140.95;44.49
38054;BME280;23859;50.672;7.164;2023-09-19T09:31:02;34210.72;;;-140.95;43.57
38054;BME280;23859;50.672;7.164;2023-09-19T09:33:34;34216.75;;;-140.95;44.72
38054;BME280;23859;50.672;7.164;2023-09-19T09:36:02;34120.34;;;-140.95;43.83
38054;BME280;23859;50.672;7.164;2023-09-19T09:38:47;34164.53;;;-140.95;42.96
38054;BME280;23859;50.672;7.164;2023-09-19T09:41:36;34188.63;;;-140.95;43.48
38054;BME280;23859;50.672;7.164;2023-09-19T09:44:13;34208.72;;;-140.95;43.88
38054;BME280;23859;50.672;7.164;2023-09-19T09:46:43;34160.50;;;-140.95;42.49
38054;BME280;23859;50.672;7.164;2023-09-19T09:49:23;34200.69;;;-140.95;42.04
38054;BME280;23859;50.672;7.164;2023-09-19T09:52:04;34226.78;;;-140.95;44.26
38054;BME280;23859;50.672;7.164;2023-09-19T09:54:35;34192.66;;;-140.95;43.63
38054;BME280;23859;50.672;7.164;2023-09-19T09:57:06;34172.56;;;-140.95;43.54
38054;BME280;23859;50.672;7.164;2023-09-19T09:59:50;34232.81;;;-140.95;43.43
38054;BME280;23859;50.672;7.164;2023-09-19T10:02:19;34200.69;;;-140.95;43.09
38054;BME280;23859;50.672;7.164;2023-09-19T10:04:55;34080.19;;;-140.95;43.39
38054;BME280;23859;50.672;7.164;2023-09-19T10:07:26;34021.94;;;-140.95;42.57
38054;BME280;23859;50.672;7.164;2023-09-19T10:09:59;34031.97;;;-140.95;43.18
38054;BME280;23859;50.672;7.164;2023-09-19T10:12:32;33949.66;;;-140.95;41.36
38054;BME280;23859;50.672;7.164;2023-09-19T10:15:03;34015.91;;;-140.95;42.61
38054;BME280;23859;50.672;7.164;2023-09-19T10:17:31;34128.38;;;-140.95;42.40
38054;BME280;23859;50.672;7.164;2023-09-19T10:20:00;34140.44;;;-140.95;42.70
38054;BME280;23859;50.672;7.164;2023-09-19T10:22:35;34104.28;;;-140.95;42.19
38054;BME280;23859;50.672;7.164;2023-09-19T10:25:04;34208.72;;;-140.95;41.55
38054;BME280;23859;50.672;7.164;2023-09-19T10:27:33;34309.13;;;-140.95;42.06
38054;BME280;23859;50.672;7.164;2023-09-19T10:30:05;34134.41;;;-140.95;43.23
38054;BME280;23859;50.672;7.164;2023-09-19T10:32:35;34156.50;;;-140.95;41.75
38054;BME280;23859;50.672;7.164;2023-09-19T10:35:03;34100.25;;;-140.95;41.87
38054;BME280;23859;50.672;7.164;2023-09-19T10:37:32;34052.06;;;-140.95;41.96
38054;BME280;23859;50.672;7.164;2023-09-19T10:40:00;34040.00;;;-140.95;42.28
38054;BME280;23859;50.672;7.164;2023-09-19T10:42:26;34132.41;;;-140.95;42.21
38054;BME280;23859;50.672;7.164;2023-09-19T10:44:58;34132.41;;;-140.95;42.00
38054;BME280;23859;50.672;7.164;2023-09-19T10:47:26;34138.44;;;-140.95;41.75
38054;BME280;23859;50.672;7.164;2023-09-19T10:49:52;34126.38;;;-140.95;42.79
38054;BME280;23859;50.672;7.164;2023-09-19T10:52:23;34013.91;;;-140.95;43.10
38054;BME280;23859;50.672;7.164;2023-09-19T10:54:52;34146.47;;;-140.95;42.18
38054;BME280;23859;50.672;7.164;2023-09-19T10:57:24;34128.38;;;-140.95;41.93
38054;BME280;23859;50.672;7.164;2023-09-19T11:00:09;34096.25;;;-140.95;42.32
38054;BME280;23859;50.672;7.164;2023-09-19T11:05:41;33985.78;;;-140.95;40.20
38054;BME280;23859;50.672;7.164;2023-09-19T11:08:07;34128.38;;;-140.95;41.31
38054;BME280;23859;50.672;7.164;2023-09-19T11:10:50;33831.16;;;-140.95;40.58
38054;BME280;23859;50.672;7.164;2023-09-19T11:13:27;33782.97;;;-140.95;40.12
38054;BME280;23859;50.672;7.164;2023-09-19T11:27:10;33825.13;;;-140.95;38.17
38054;BME280;23859;50.672;7.164;2023-09-19T11:29:39;33833.16;;;-140.95;38.70
38054;BME280;23859;50.672;7.164;2023-09-19T11:32:06;33933.59;;;-140.95;38.30
38054;BME280;23859;50.672;7.164;2023-09-19T11:34:43;33837.19;;;-140.95;38.00
38054;BME280;23859;50.672;7.164;2023-09-19T11:42:44;33947.63;;;-140.95;37.88
38054;BME280;23859;50.672;7.164;2023-09-19T11:48:23;31727.16;;;-140.95;37.78
38054;BME280;23859;50.672;7.164;2023-09-19T11:50:53;33867.31;;;-140.95;37.20
38054;BME280;23859;50.672;7.164;2023-09-19T11:53:21;33795.00;;;-140.95;36.99
38054;BME280;23859;50.672;7.164;2023-09-19T11:55:49;33923.53;;;-140.95;38.77
38054;BME280;23859;50.672;7.164;2023-09-19T11:58:16;33863.28;;;-140.95;38.71
38054;BME280;23859;50.672;7.164;2023-09-19T12:00:45;33809.06;;;-140.95;36.78
38054;BME280;23859;50.672;7.164;2023-09-19T12:03:12;33865.31;;;-140.95;37.22
38054;BME280;23859;50.672;7.164;2023-09-19T12:05:40;33917.50;;;-140.95;37.31
38054;BME280;23859;50.672;7.164;2023-09-19T12:08:09;33935.59;;;-140.95;38.13
38054;BME280;23859;50.672;7.164;2023-09-19T12:10:47;33937.59;;;-140.95;37.56
38054;BME280;23859;50.672;7.164;2023-09-19T12:13:17;33955.66;;;-140.95;37.84
38054;BME280;23859;50.672;7.164;2023-09-19T12:15:44;33951.66;;;-140.95;38.44
38054;BME280;23859;50.672;7.164;2023-09-19T12:18:29;33953.66;;;-140.95;37.92
38054;BME280;23859;50.672;7.164;2023-09-19T12:20:55;33957.69;;;-140.95;38.15
38054;BME280;23859;50.672;7.164;2023-09-19T12:23:23;33871.31;;;-140.95;37.89
38054;BME280;23859;50.672;7.164;2023-09-19T12:25:51;33931.56;;;-140.95;37.49
38054;BME280;23859;50.672;7.164;2023-09-19T12:28:20;33903.47;;;-140.95;36.90
38054;BME280;23859;50.672;7.164;2023-09-19T12:30:49;33911.50;;;-140.95;37.78
38054;BME280;23859;50.672;7.164;2023-09-19T12:33:17;33963.69;;;-140.95;37.27
38054;BME280;23859;50.672;7.164;2023-09-19T12:35:45;33901.44;;;-140.95;37.64
38054;BME280;23859;50.672;7.164;2023-09-19T12:38:21;33859.28;;;-140.95;37.33
38054;BME280;23859;50.672;7.164;2023-09-19T12:40:49;33843.22;;;-140.95;37.82
38054;BME280;23859;50.672;7.164;2023-09-19T12:43:18;33809.06;;;-140.95;37.94
38054;BME280;23859;50.672;7.164;2023-09-19T12:45:46;33921.53;;;-140.95;37.30
38054;BME280;23859;50.672;7.164;2023-09-19T12:48:25;33807.06;;;-140.95;37.61
38054;BME280;23859;50.672;7.164;2023-09-19T12:51:01;33786.97;;;-140.95;36.96
38054;BME280;23859;50.672;7.164;2023-09-19T12:53:33;33782.97;;;-140.95;37.35
38054;BME280;23859;50.672;7.164;2023-09-19T12:56:02;33746.81;;;-140.95;36.55
38054;BME280;23859;50.672;7.164;2023-09-19T12:58:31;33734.78;;;-140.95;36.79
38054;BME280;23859;50.672;7.164;2023-09-19T13:00:58;33720.72;;;-140.95;36.69
38054;BME280;23859;50.672;7.164;2023-09-19T13:03:25;33694.59;;;-140.95;37.01
38054;BME280;23859;50.672;7.164;2023-09-19T13:05:56;33762.88;;;-140.95;35.84
38054;BME280;23859;50.672;7.164;2023-09-19T13:08:29;33778.94;;;-140.95;36.72
38054;BME280;23859;50.672;7.164;2023-09-19T13:11:04;33770.91;;;-140.95;36.27
38054;BME280;23859;50.672;7.164;2023-09-19T13:13:36;33686.56;;;-140.95;36.28
38054;BME280;23859;50.672;7.164;2023-09-19T13:16:03;33758.88;;;-140.95;36.47
38054;BME280;23859;50.672;7.164;2023-09-19T13:18:46;33766.91;;;-140.95;36.47
38054;BME280;23859;50.672;7.164;2023-09-19T13:21:14;33732.75;;;-140.95;36.20
38054;BME280;23859;50.672;7.164;2023-09-19T13:23:53;33754.84;;;-140.95;37.71
38054;BME280;23859;50.672;7.164;2023-09-19T13:26:22;33722.72;;;-140.95;36.41